Time;durP1;ratioP1;P1;durP2;ratioP2;P2;SDS_P1;SDS_P2;PMS_P1;PMS_P2;Temp;Humidity;BMP_temperature;BMP_pressure;BME280_temperature;BME280_humidity;BME280_pressure;Samples;Min_cycle;Max_cycle;Signal;HPM_P1;HPM_P2
2022/03/04 00:00:45;;;;;;;;;;;;;;;0.07;49.17;99917.97;6244493;23;19920;-81
2022/03/04 00:03:11;;;;;;;;;;;;;;;0.08;49.11;99920.34;6217306;23;19923;-81
2022/03/04 00:05:36;;;;;;;;;;;;;;;0.05;49.23;99917.56;6244228;23;20005;-81
2022/03/04 00:08:02;;;;;;;;;;;;;;;0.03;49.14;99922.59;6244323;23;20308;-81
2022/03/04 00:10:27;;;;;;;;;;;;;;;0.01;49.29;99920.22;6244753;23;19983;-81
2022/03/04 00:12:53;;;;;;;;;;;;;;;0.00;49.34;99924.91;6244212;23;19923;-81
2022/03/04 00:15:19;;;;;;;;;;;;;;;0.03;49.40;99926.13;6244403;23;19915;-81
2022/03/04 00:17:44;;;;;;;;;;;;;;;0.04;49.18;99924.97;6217225;23;19969;-89
2022/03/04 00:20:10;;;;;;;;;;;;;;;0.04;49.28;99924.97;6244715;23;19916;-88
2022/03/04 00:22:36;;;;;;;;;;;;;;;0.09;49.06;99921.91;6244426;23;19927;-88
2022/03/04 00:25:01;;;;;;;;;;;;;;;0.15;49.10;99912.25;6243956;23;20010;-88
2022/03/04 00:27:26;;;;;;;;;;;;;;;0.21;48.78;99918.16;6243945;23;19916;-88
2022/03/04 00:29:52;;;;;;;;;;;;;;;0.28;48.40;99921.78;6244266;23;20330;-89
2022/03/04 00:32:17;;;;;;;;;;;;;;;0.26;48.68;99926.03;6244089;23;19927;-88
2022/03/04 00:34:43;;;;;;;;;;;;;;;0.19;49.19;99934.13;6244341;23;19916;-89
2022/03/04 00:37:08;;;;;;;;;;;;;;;0.14;49.29;99927.03;6244439;23;20293;-89
2022/03/04 00:39:33;;;;;;;;;;;;;;;0.11;49.34;99924.28;6244165;23;20376;-88
2022/03/04 00:41:59;;;;;;;;;;;;;;;0.10;49.45;99922.69;6243924;23;19920;-89
2022/03/04 00:44:24;;;;;;;;;;;;;;;0.06;49.47;99928.09;6244151;23;20594;-88
2022/03/04 00:46:50;;;;;;;;;;;;;;;0.01;49.77;99920.22;6243543;23;19923;-89
2022/03/04 00:49:15;;;;;;;;;;;;;;;-0.04;49.75;99918.59;6244476;23;20372;-88
2022/03/04 00:51:40;;;;;;;;;;;;;;;-0.07;49.99;99919.34;6243958;23;19991;-88
2022/03/04 00:54:06;;;;;;;;;;;;;;;-0.11;50.06;99921.25;6217129;23;19911;-81
2022/03/04 00:56:31;;;;;;;;;;;;;;;-0.09;50.14;99915.44;6244149;23;20300;-89
2022/03/04 00:58:57;;;;;;;;;;;;;;;-0.11;50.44;99913.06;6243815;23;19922;-88
2022/03/04 01:01:22;;;;;;;;;;;;;;;-0.15;50.63;99916.88;6244416;23;19916;-89
2022/03/04 01:03:48;;;;;;;;;;;;;;;-0.16;50.72;99907.91;6243314;23;20269;-89
2022/03/04 01:06:13;;;;;;;;;;;;;;;-0.17;50.76;99909.09;6243944;23;19915;-89
2022/03/04 01:08:39;;;;;;;;;;;;;;;-0.19;50.90;99908.66;6243720;23;19922;-89
2022/03/04 01:11:04;;;;;;;;;;;;;;;-0.25;50.93;99904.69;6217490;23;19969;-88
2022/03/04 01:13:30;;;;;;;;;;;;;;;-0.32;51.30;99901.84;6243356;23;19970;-89
2022/03/04 01:15:56;;;;;;;;;;;;;;;-0.36;51.44;99903.72;6217240;23;20447;-89
2022/03/04 01:18:21;;;;;;;;;;;;;;;-0.38;51.64;99906.06;6243839;23;19922;-89
2022/03/04 01:20:47;;;;;;;;;;;;;;;-0.40;51.85;99905.63;6243794;23;19916;-89
2022/03/04 01:23:12;;;;;;;;;;;;;;;-0.38;51.69;99897.88;6243639;23;19911;-88
2022/03/04 01:25:37;;;;;;;;;;;;;;;-0.41;51.75;99895.09;6243896;23;19955;-88
2022/03/04 01:28:03;;;;;;;;;;;;;;;-0.45;52.14;99892.34;6242625;23;19939;-88
2022/03/04 01:30:28;;;;;;;;;;;;;;;-0.43;52.11;99890.00;6244093;23;19923;-88
2022/03/04 01:32:54;;;;;;;;;;;;;;;-0.46;52.37;99893.47;6243428;23;19911;-88
2022/03/04 01:35:19;;;;;;;;;;;;;;;-0.51;52.75;99894.56;6244160;23;19939;-88
2022/03/04 01:37:45;;;;;;;;;;;;;;;-0.55;52.82;99871.16;6243362;23;19959;-88
2022/03/04 01:40:11;;;;;;;;;;;;;;;-0.56;53.13;99885.91;6244131;23;19922;-88
2022/03/04 01:42:37;;;;;;;;;;;;;;;-0.57;53.11;99885.16;6243794;23;19920;-87
2022/03/04 01:45:03;;;;;;;;;;;;;;;-0.59;53.06;99886.66;6243188;23;19922;-88
2022/03/04 01:47:28;;;;;;;;;;;;;;;-0.61;53.31;99876.13;6243557;23;19973;-89
2022/03/04 01:49:54;;;;;;;;;;;;;;;-0.63;53.36;99880.34;6243307;23;19911;-88
2022/03/04 01:52:20;;;;;;;;;;;;;;;-0.63;53.29;99872.97;6243687;23;19922;-88
2022/03/04 01:54:45;;;;;;;;;;;;;;;-0.63;53.36;99872.97;6243209;23;19916;-88
2022/03/04 01:57:11;;;;;;;;;;;;;;;-0.61;53.13;99875.34;6243662;23;19967;-88
2022/03/04 01:59:36;;;;;;;;;;;;;;;-0.65;52.83;99871.78;6216327;23;19920;-88
2022/03/04 02:02:02;;;;;;;;;;;;;;;-0.70;53.48;99869.34;6243234;23;19923;-89
2022/03/04 02:04:27;;;;;;;;;;;;;;;-0.74;53.29;99863.06;6243472;23;19951;-88
2022/03/04 02:06:52;;;;;;;;;;;;;;;-0.78;53.42;99862.22;6242840;23;19958;-88
2022/03/04 02:09:18;;;;;;;;;;;;;;;-0.82;53.65;99845.06;6243462;23;19920;-88
2022/03/04 02:11:44;;;;;;;;;;;;;;;-0.86;53.80;99872.22;6243715;23;20360;-81
2022/03/04 02:14:10;;;;;;;;;;;;;;;-0.88;53.93;99862.81;6242862;23;19942;-81
2022/03/04 02:16:40;;;;;;;;;;;;;;;-0.90;53.87;99865.16;6216646;23;19915;-81
2022/03/04 02:19:06;;;;;;;;;;;;;;;-0.93;53.96;99865.88;6242978;23;19915;-81
2022/03/04 02:21:32;;;;;;;;;;;;;;;-0.95;53.93;99861.56;6243265;22;19928;-81
2022/03/04 02:23:57;;;;;;;;;;;;;;;-1.00;54.15;99867.31;6243091;23;19922;-81
2022/03/04 02:26:23;;;;;;;;;;;;;;;-0.99;54.33;99868.91;6245480;23;20318;-81
2022/03/04 02:28:48;;;;;;;;;;;;;;;-1.02;54.17;99866.91;6244781;23;19962;-81
2022/03/04 02:31:15;;;;;;;;;;;;;;;-1.06;54.33;99854.38;6245715;23;19989;-89
2022/03/04 02:33:42;;;;;;;;;;;;;;;-1.07;54.24;99867.22;6245192;23;19990;-88
2022/03/04 02:36:07;;;;;;;;;;;;;;;-1.12;54.46;99859.34;6245330;23;19946;-89
2022/03/04 02:38:32;;;;;;;;;;;;;;;-1.13;54.72;99868.66;6245269;23;19912;-88
2022/03/04 02:40:58;;;;;;;;;;;;;;;-1.20;54.73;99854.94;6218637;23;20381;-89
2022/03/04 02:43:23;;;;;;;;;;;;;;;-1.08;54.72;99868.34;6245387;23;19960;-88
2022/03/04 02:45:51;;;;;;;;;;;;;;;-1.00;54.57;99875.50;6245650;23;19923;-88
2022/03/04 02:48:17;;;;;;;;;;;;;;;-0.97;54.36;99861.13;6245932;23;19925;-87
2022/03/04 02:50:42;;;;;;;;;;;;;;;-0.93;54.15;99864.72;6246414;23;19908;-88
2022/03/04 02:53:08;;;;;;;;;;;;;;;-0.90;54.18;99859.69;6245624;23;19927;-89
2022/03/04 02:55:33;;;;;;;;;;;;;;;-0.86;53.75;99872.22;6245578;23;19916;-88
2022/03/04 02:57:58;;;;;;;;;;;;;;;-0.81;53.71;99874.66;6246395;23;19916;-88
2022/03/04 03:00:24;;;;;;;;;;;;;;;-0.73;53.61;99875.53;6245824;23;19991;-88
2022/03/04 03:02:49;;;;;;;;;;;;;;;-0.72;53.50;99866.19;6245180;23;20345;-88
2022/03/04 03:05:15;;;;;;;;;;;;;;;-0.70;53.60;99864.69;6245396;23;19939;-88
2022/03/04 03:07:40;;;;;;;;;;;;;;;-0.70;53.39;99869.34;6245658;23;20290;-88
2022/03/04 03:10:06;;;;;;;;;;;;;;;-0.69;53.36;99868.22;6245380;23;19923;-88
2022/03/04 03:12:32;;;;;;;;;;;;;;;-0.73;53.58;99867.38;6244977;23;19915;-88
2022/03/04 03:14:57;;;;;;;;;;;;;;;-0.74;53.59;99872.03;6244765;23;20342;-87
2022/03/04 03:17:22;;;;;;;;;;;;;;;-0.74;53.79;99873.97;6245129;23;19922;-89
2022/03/04 03:19:48;;;;;;;;;;;;;;;-0.71;53.87;99868.56;6244906;23;19942;-89
2022/03/04 03:22:16;;;;;;;;;;;;;;;-0.75;54.18;99872.38;6217781;23;19939;-89
2022/03/04 03:24:42;;;;;;;;;;;;;;;-0.79;54.01;99868.81;6245162;23;19915;-88
2022/03/04 03:27:08;;;;;;;;;;;;;;;-0.83;54.59;99876.16;6244761;23;19918;-89
2022/03/04 03:29:33;;;;;;;;;;;;;;;-0.86;54.56;99871.44;6245094;23;19916;-88
2022/03/04 03:31:58;;;;;;;;;;;;;;;-0.87;54.68;99875.31;6244669;23;19922;-88
2022/03/04 03:34:24;;;;;;;;;;;;;;;-0.90;54.96;99870.59;6218255;23;20361;-88
2022/03/04 03:36:49;;;;;;;;;;;;;;;-0.90;54.98;99873.31;6243471;23;19983;-88
2022/03/04 03:39:15;;;;;;;;;;;;;;;-0.93;55.26;99870.16;6244868;23;19947;-88
2022/03/04 03:41:40;;;;;;;;;;;;;;;-0.97;55.36;99869.31;6245288;23;19915;-88
2022/03/04 03:44:06;;;;;;;;;;;;;;;-1.04;55.88;99871.91;6244782;23;20362;-88
2022/03/04 03:46:31;;;;;;;;;;;;;;;-1.06;56.36;99868.78;6244823;23;20327;-88
2022/03/04 03:48:56;;;;;;;;;;;;;;;-1.08;56.43;99878.44;6244826;23;19920;-88
2022/03/04 03:51:22;;;;;;;;;;;;;;;-1.11;56.61;99874.53;6244571;23;19916;-88
2022/03/04 03:53:47;;;;;;;;;;;;;;;-1.08;56.74;99881.16;6217828;23;19918;-88
2022/03/04 03:56:13;;;;;;;;;;;;;;;-1.05;56.85;99886.66;6217592;23;19946;-88
2022/03/04 03:58:38;;;;;;;;;;;;;;;-1.05;56.89;99881.22;6244632;23;20353;-88
2022/03/04 04:01:04;;;;;;;;;;;;;;;-1.09;56.95;99880.38;6244311;23;19916;-87
2022/03/04 04:03:30;;;;;;;;;;;;;;;-1.10;57.25;99878.84;6244651;23;19915;-89
2022/03/04 04:05:55;;;;;;;;;;;;;;;-1.10;57.29;99889.72;6244089;23;19919;-81
2022/03/04 04:08:20;;;;;;;;;;;;;;;-1.11;57.66;99884.63;6244893;23;19912;-81
2022/03/04 04:10:46;;;;;;;;;;;;;;;-1.13;57.60;99889.66;6244421;23;19954;-81
2022/03/04 04:13:11;;;;;;;;;;;;;;;-1.17;57.91;99895.00;6243928;23;19922;-81
2022/03/04 04:15:37;;;;;;;;;;;;;;;-1.20;58.22;99897.69;6244516;23;19915;-81
2022/03/04 04:18:02;;;;;;;;;;;;;;;-1.21;58.47;99896.88;6244354;23;19969;-81
2022/03/04 04:20:27;;;;;;;;;;;;;;;-1.22;58.56;99900.78;6243962;23;19916;-81
2022/03/04 04:22:53;;;;;;;;;;;;;;;-1.24;58.71;99905.78;6244201;23;19916;-81
2022/03/04 04:25:18;;;;;;;;;;;;;;;-1.24;58.68;99900.34;6244100;23;19938;-81
2022/03/04 04:27:44;;;;;;;;;;;;;;;-1.25;58.91;99901.47;6244108;23;19922;-82
2022/03/04 04:30:09;;;;;;;;;;;;;;;-1.26;59.09;99896.41;6243432;23;19982;-81
2022/03/04 04:32:35;;;;;;;;;;;;;;;-1.28;59.27;99904.13;6244376;23;19963;-82
2022/03/04 04:35:00;;;;;;;;;;;;;;;-1.32;59.74;99904.06;6243625;23;19998;-81
2022/03/04 04:37:26;;;;;;;;;;;;;;;-1.33;59.89;99897.06;6244045;23;19915;-81
2022/03/04 04:39:51;;;;;;;;;;;;;;;-1.35;60.22;99898.56;6244119;23;19943;-81
2022/03/04 04:42:16;;;;;;;;;;;;;;;-1.36;60.46;99897.00;6243946;23;19920;-81
2022/03/04 04:44:42;;;;;;;;;;;;;;;-1.35;60.57;99893.91;6216925;23;19923;-81
2022/03/04 04:47:07;;;;;;;;;;;;;;;-1.33;60.50;99899.00;6242972;23;20223;-81
2022/03/04 04:49:36;;;;;;;;;;;;;;;-1.36;60.84;99886.91;6243123;23;19915;-81
2022/03/04 04:52:03;;;;;;;;;;;;;;;-1.44;61.28;99906.97;6244413;23;19922;-81
2022/03/04 04:54:28;;;;;;;;;;;;;;;-1.42;61.38;99910.13;6243314;23;20510;-82
2022/03/04 04:56:53;;;;;;;;;;;;;;;-1.45;61.71;99905.38;6243148;23;19990;-81
2022/03/04 04:59:19;;;;;;;;;;;;;;;-1.48;61.84;99904.16;6244303;23;19994;-81
2022/03/04 05:01:44;;;;;;;;;;;;;;;-1.48;62.06;99904.16;6243791;23;19916;-81
2022/03/04 05:04:10;;;;;;;;;;;;;;;-1.48;62.13;99912.34;6243647;23;19927;-80
2022/03/04 05:06:35;;;;;;;;;;;;;;;-1.52;62.31;99913.41;6244254;23;19916;-81
2022/03/04 05:09:00;;;;;;;;;;;;;;;-1.53;62.28;99915.34;6243839;23;20238;-80
2022/03/04 05:11:26;;;;;;;;;;;;;;;-1.53;62.32;99914.53;6244372;23;19919;-81
2022/03/04 05:13:51;;;;;;;;;;;;;;;-1.56;62.80;99921.50;6243827;23;19919;-81
2022/03/04 05:16:17;;;;;;;;;;;;;;;-1.57;63.22;99924.56;6244559;23;19951;-82
2022/03/04 05:18:42;;;;;;;;;;;;;;;-1.58;63.33;99923.81;6243977;23;19922;-81
2022/03/04 05:21:08;;;;;;;;;;;;;;;-1.63;63.68;99926.00;6243936;23;20329;-81
2022/03/04 05:26:17;;;;;;;;;;;;;;;-1.67;64.16;99938.75;6242649;23;19967;-82
2022/03/04 05:28:43;;;;;;;;;;;;;;;-1.68;64.67;99940.69;6241831;23;19916;-82
2022/03/04 05:31:08;;;;;;;;;;;;;;;-1.71;64.75;99937.91;6243330;23;19919;-82
2022/03/04 05:33:34;;;;;;;;;;;;;;;-1.71;64.95;99930.53;6242173;23;19954;-82
2022/03/04 05:35:59;;;;;;;;;;;;;;;-1.72;65.13;99936.31;6242464;23;19916;-82
2022/03/04 05:38:25;;;;;;;;;;;;;;;-1.73;65.56;99937.44;6242402;23;19912;-81
2022/03/04 05:40:50;;;;;;;;;;;;;;;-1.74;65.68;99939.41;6242711;23;19990;-81
2022/03/04 05:43:16;;;;;;;;;;;;;;;-1.72;65.95;99949.91;6215280;23;19943;-90
2022/03/04 05:45:41;;;;;;;;;;;;;;;-1.74;66.23;99933.97;6242714;23;19985;-90
2022/03/04 05:48:07;;;;;;;;;;;;;;;-1.71;66.30;99946.06;6242104;23;19916;-91
2022/03/04 05:50:32;;;;;;;;;;;;;;;-1.71;66.37;99951.50;6216131;23;19922;-91
2022/03/04 05:52:58;;;;;;;;;;;;;;;-1.71;66.88;99952.28;6242771;23;19930;-88
2022/03/04 05:55:23;;;;;;;;;;;;;;;-1.70;67.00;99947.63;6243885;23;19954;-90
2022/03/04 05:57:49;;;;;;;;;;;;;;;-1.71;67.69;99957.72;6243812;23;19915;-90
2022/03/04 06:00:14;;;;;;;;;;;;;;;-1.69;67.93;99958.13;6240375;22;19973;-91
2022/03/04 06:02:39;;;;;;;;;;;;;;;-1.68;67.98;99961.66;6239904;23;19998;-91
2022/03/04 06:05:05;;;;;;;;;;;;;;;-1.67;68.16;99964.03;6240481;23;20329;-90
2022/03/04 06:07:33;;;;;;;;;;;;;;;-1.66;68.37;99965.59;6239892;23;19919;-91
2022/03/04 06:09:59;;;;;;;;;;;;;;;-1.65;68.58;99958.19;6241234;23;20029;-91
2022/03/04 06:12:24;;;;;;;;;;;;;;;-1.64;68.79;99967.94;6214675;23;19935;-91
2022/03/04 06:14:50;;;;;;;;;;;;;;;-1.64;69.20;99970.66;6241963;23;19927;-91
2022/03/04 06:17:16;;;;;;;;;;;;;;;-1.63;69.35;99970.31;6242046;23;19911;-90
2022/03/04 06:19:41;;;;;;;;;;;;;;;-1.62;69.85;99982.00;6241478;23;19922;-89
2022/03/04 06:22:07;;;;;;;;;;;;;;;-1.60;70.13;99980.47;6242598;23;19943;-90
2022/03/04 06:24:32;;;;;;;;;;;;;;;-1.57;70.74;99981.69;6243542;23;20223;-91
2022/03/04 06:26:58;;;;;;;;;;;;;;;-1.50;70.72;99984.56;6216963;23;19923;-90
2022/03/04 06:29:23;;;;;;;;;;;;;;;-1.43;70.96;99990.16;6242988;23;20330;-91
2022/03/04 06:31:48;;;;;;;;;;;;;;;-1.39;71.44;99990.22;6243213;23;19920;-88
2022/03/04 06:34:14;;;;;;;;;;;;;;;-1.33;71.21;99989.56;6242784;23;20363;-90
2022/03/04 06:36:40;;;;;;;;;;;;;;;-1.30;71.63;99991.59;6243485;23;19915;-90
2022/03/04 06:39:06;;;;;;;;;;;;;;;-1.24;71.86;100002.97;6191469;23;19916;-91
2022/03/04 06:41:31;;;;;;;;;;;;;;;-1.19;72.41;99994.50;6242697;23;19919;-90
2022/03/04 06:43:56;;;;;;;;;;;;;;;-1.14;72.60;100008.63;6240172;23;19916;-89
2022/03/04 06:46:22;;;;;;;;;;;;;;;-1.06;72.87;100004.91;6240670;23;20345;-89
2022/03/04 06:48:48;;;;;;;;;;;;;;;-0.97;73.20;100013.59;6242464;23;19935;-89
2022/03/04 06:51:13;;;;;;;;;;;;;;;-0.96;73.58;100012.47;6243033;23;19938;-88
2022/03/04 06:53:38;;;;;;;;;;;;;;;-0.91;74.33;100016.84;6243068;23;20393;-88
2022/03/04 06:56:04;;;;;;;;;;;;;;;-0.82;74.41;100011.16;6241741;23;20341;-93
2022/03/04 06:58:29;;;;;;;;;;;;;;;-0.78;74.91;100006.56;6241304;23;19939;-90
2022/03/04 07:00:55;;;;;;;;;;;;;;;-0.73;75.35;100022.63;6241706;23;19967;-88
2022/03/04 07:03:20;;;;;;;;;;;;;;;-0.65;75.39;100013.44;6240820;23;20318;-90
2022/03/04 07:05:46;;;;;;;;;;;;;;;-0.57;75.12;100010.47;6242043;23;19922;-90
2022/03/04 07:08:12;;;;;;;;;;;;;;;-0.53;75.69;100021.44;6241675;23;20299;-92
2022/03/04 07:10:42;;;;;;;;;;;;;;;-0.47;75.99;100020.75;6242415;23;19916;-89
2022/03/04 07:13:08;;;;;;;;;;;;;;;-0.33;75.79;100024.88;6243904;23;19920;-90
2022/03/04 07:15:34;;;;;;;;;;;;;;;-0.19;75.51;100030.53;6245740;23;19918;-90
2022/03/04 07:17:59;;;;;;;;;;;;;;;-0.04;74.92;100032.38;6245233;23;19927;-90
2022/03/04 07:20:25;;;;;;;;;;;;;;;-0.05;74.65;100026.13;6245728;23;19912;-90
2022/03/04 07:22:50;;;;;;;;;;;;;;;-0.09;75.30;100032.66;6245300;23;19923;-90
2022/03/04 07:25:16;;;;;;;;;;;;;;;0.10;74.69;100026.31;6244985;23;19918;-90
2022/03/04 07:27:41;;;;;;;;;;;;;;;0.16;74.30;100027.59;6245433;23;19916;-91
2022/03/04 07:30:08;;;;;;;;;;;;;;;0.32;73.98;100044.59;6218599;23;19915;-89
2022/03/04 07:32:33;;;;;;;;;;;;;;;0.37;73.85;100027.88;6245482;23;20037;-89
2022/03/04 07:34:59;;;;;;;;;;;;;;;0.48;73.26;100034.31;6245166;23;19919;-89
2022/03/04 07:37:25;;;;;;;;;;;;;;;0.58;72.76;100030.91;6245349;23;19974;-90
2022/03/04 07:39:50;;;;;;;;;;;;;;;0.76;72.25;100047.53;6218667;23;19916;-90
2022/03/04 07:42:15;;;;;;;;;;;;;;;0.80;71.59;100042.91;6245028;23;19916;-90
2022/03/04 07:44:41;;;;;;;;;;;;;;;0.90;70.93;100048.50;6218054;23;19918;-90
2022/03/04 07:47:07;;;;;;;;;;;;;;;0.93;70.69;100050.47;6245098;23;19916;-90
2022/03/04 07:49:32;;;;;;;;;;;;;;;0.93;70.95;100063.38;6218547;23;19919;-89
2022/03/04 07:51:58;;;;;;;;;;;;;;;0.93;70.87;100061.38;6245486;23;19916;-90
2022/03/04 07:54:23;;;;;;;;;;;;;;;0.95;70.84;100066.50;6245224;23;19912;-90
2022/03/04 07:56:48;;;;;;;;;;;;;;;1.03;70.42;100067.38;6245100;23;19920;-90
2022/03/04 07:59:14;;;;;;;;;;;;;;;1.17;69.55;100073.00;6244695;23;20392;-91
2022/03/04 08:01:39;;;;;;;;;;;;;;;1.29;68.80;100070.03;6245260;23;20326;-89
2022/03/04 08:04:05;;;;;;;;;;;;;;;1.08;69.00;100075.22;6192846;23;19916;-90
2022/03/04 08:06:31;;;;;;;;;;;;;;;1.12;69.24;100081.53;6245240;23;19927;-90
2022/03/04 08:08:56;;;;;;;;;;;;;;;1.38;68.21;100073.22;6245029;23;19916;-89
2022/03/04 08:11:22;;;;;;;;;;;;;;;1.56;67.65;100074.22;6244695;23;20002;-91
2022/03/04 08:13:47;;;;;;;;;;;;;;;1.65;67.01;100082.91;6244797;23;19916;-90
2022/03/04 08:16:13;;;;;;;;;;;;;;;1.78;66.45;100081.44;6245037;23;20243;-91
2022/03/04 08:18:38;;;;;;;;;;;;;;;1.95;64.98;100079.25;6218176;23;19969;-91
2022/03/04 08:21:03;;;;;;;;;;;;;;;2.00;64.58;100078.91;6245143;23;19969;-91
2022/03/04 08:23:30;;;;;;;;;;;;;;;2.21;64.11;100090.03;6244438;23;20330;-90
2022/03/04 08:25:57;;;;;;;;;;;;;;;2.35;62.66;100082.69;6245174;23;19916;-90
2022/03/04 08:28:22;;;;;;;;;;;;;;;2.25;63.22;100079.88;6244298;23;19939;-90
2022/03/04 08:30:48;;;;;;;;;;;;;;;2.22;63.07;100086.91;6218511;23;20491;-91
2022/03/04 08:33:13;;;;;;;;;;;;;;;2.26;62.35;100087.72;6244714;23;19997;-91
2022/03/04 08:35:39;;;;;;;;;;;;;;;2.44;62.18;100082.38;6245002;23;19923;-91
2022/03/04 08:38:04;;;;;;;;;;;;;;;2.52;61.61;100073.03;6217812;23;19915;-90
2022/03/04 08:40:29;;;;;;;;;;;;;;;2.46;61.29;100088.25;6244903;23;20403;-91
2022/03/04 08:42:56;;;;;;;;;;;;;;;2.63;61.26;100086.81;6244725;23;19943;-90
2022/03/04 08:45:21;;;;;;;;;;;;;;;2.70;60.48;100090.38;6244401;23;19923;-91
2022/03/04 08:47:46;;;;;;;;;;;;;;;2.95;59.59;100070.53;6218011;23;19919;-90
2022/03/04 08:50:12;;;;;;;;;;;;;;;3.11;59.29;100084.69;6244378;23;19916;-91
2022/03/04 08:52:38;;;;;;;;;;;;;;;3.04;59.15;100084.63;6218024;23;20338;-80
2022/03/04 08:55:04;;;;;;;;;;;;;;;2.98;59.01;100084.25;6244175;23;19962;-80
2022/03/04 08:57:30;;;;;;;;;;;;;;;3.17;58.46;100088.63;6217635;23;19973;-80
2022/03/04 08:59:56;;;;;;;;;;;;;;;3.33;58.13;100075.34;6244415;23;19919;-81
2022/03/04 09:02:21;;;;;;;;;;;;;;;3.23;57.45;100092.56;6217417;23;20298;-81
2022/03/04 09:04:46;;;;;;;;;;;;;;;3.08;58.05;100093.66;6244261;23;19939;-80
2022/03/04 09:07:12;;;;;;;;;;;;;;;3.10;58.10;100096.81;6244485;23;19916;-81
2022/03/04 09:09:38;;;;;;;;;;;;;;;3.17;57.59;100094.88;6244305;23;19922;-81
2022/03/04 09:12:04;;;;;;;;;;;;;;;3.11;57.41;100095.66;6245064;23;20014;-91
2022/03/04 09:14:29;;;;;;;;;;;;;;;3.01;57.31;100090.91;6245707;23;19919;-91
2022/03/04 09:16:55;;;;;;;;;;;;;;;3.02;57.75;100097.97;6244578;23;19995;-90
2022/03/04 09:19:20;;;;;;;;;;;;;;;3.04;57.84;100101.09;6244280;23;20034;-90
2022/03/04 09:21:47;;;;;;;;;;;;;;;3.29;57.37;100086.31;6218060;23;19927;-90
2022/03/04 09:24:12;;;;;;;;;;;;;;;3.19;56.55;100097.25;6244240;23;19916;-90
2022/03/04 09:26:38;;;;;;;;;;;;;;;3.30;56.49;100095.31;6244335;23;19922;-91
2022/03/04 09:29:03;;;;;;;;;;;;;;;3.17;56.45;100094.09;6217129;23;19923;-91
2022/03/04 09:31:30;;;;;;;;;;;;;;;3.36;56.56;100091.03;6244714;23;19916;-92
2022/03/04 09:33:56;;;;;;;;;;;;;;;3.48;55.71;100093.41;6243749;23;19983;-91
2022/03/04 09:36:21;;;;;;;;;;;;;;;3.51;56.15;100095.41;6217683;23;19916;-90
2022/03/04 09:38:46;;;;;;;;;;;;;;;3.74;55.96;100106.81;6244480;23;19926;-91
2022/03/04 09:41:12;;;;;;;;;;;;;;;3.98;54.73;100099.78;6244250;23;19998;-91
2022/03/04 09:43:38;;;;;;;;;;;;;;;4.08;54.55;100098.22;6244020;23;20041;-91
2022/03/04 09:46:04;;;;;;;;;;;;;;;4.06;53.90;100106.06;6217532;23;19911;-91
2022/03/04 09:48:29;;;;;;;;;;;;;;;4.29;54.07;100109.19;6217179;23;19926;-91
2022/03/04 09:50:55;;;;;;;;;;;;;;;4.59;53.13;100093.09;6244885;23;20330;-90
2022/03/04 09:53:20;;;;;;;;;;;;;;;4.81;52.16;100095.81;6244029;23;19959;-91
2022/03/04 09:55:46;;;;;;;;;;;;;;;4.98;51.80;100100.44;6244281;23;20360;-91
2022/03/04 09:58:12;;;;;;;;;;;;;;;4.99;51.13;100085.53;6243705;23;19919;-91
2022/03/04 10:00:38;;;;;;;;;;;;;;;4.76;52.11;100093.44;6217337;23;19916;-91
2022/03/04 10:03:03;;;;;;;;;;;;;;;4.84;51.92;100089.50;6216877;23;20215;-91
2022/03/04 10:05:29;;;;;;;;;;;;;;;4.91;51.71;100094.97;6243932;23;19926;-92
2022/03/04 10:07:55;;;;;;;;;;;;;;;5.11;51.07;100090.59;6244198;23;20241;-90
2022/03/04 10:10:23;;;;;;;;;;;;;;;4.85;50.62;100088.34;6216861;23;19915;-91
2022/03/04 10:12:55;;;;;;;;;;;;;;;4.81;51.14;100102.09;6243776;23;19934;-90
2022/03/04 10:15:21;;;;;;;;;;;;;;;4.97;51.05;100098.91;6243282;23;19926;-90
2022/03/04 10:18:02;;;;;;;;;;;;;;;4.86;51.19;100101.66;6243866;23;19912;-91
2022/03/04 10:20:38;;;;;;;;;;;;;;;5.03;51.04;100102.78;6244472;23;19915;-91
2022/03/04 10:23:11;;;;;;;;;;;;;;;5.18;50.64;100098.81;6243947;23;19994;-91
2022/03/04 10:25:36;;;;;;;;;;;;;;;5.07;50.79;100098.84;6243829;23;20384;-91
2022/03/04 10:28:08;;;;;;;;;;;;;;;5.16;51.00;100099.22;6244073;23;19911;-80
2022/03/04 10:30:34;;;;;;;;;;;;;;;5.57;50.14;100101.38;6243703;23;19915;-80
2022/03/04 10:33:09;;;;;;;;;;;;;;;5.78;49.65;100100.47;6243901;23;20349;-80
2022/03/04 10:35:36;;;;;;;;;;;;;;;5.66;49.09;100085.22;6243554;23;19916;-80
2022/03/04 10:38:04;;;;;;;;;;;;;;;5.63;49.51;100097.81;6244091;23;19912;-80
2022/03/04 10:40:35;;;;;;;;;;;;;;;5.49;49.73;100097.91;6243834;23;19916;-80
2022/03/04 10:43:01;;;;;;;;;;;;;;;5.33;50.81;100096.78;6243833;23;20333;-80
2022/03/04 10:45:34;;;;;;;;;;;;;;;5.02;50.97;100090.22;6216811;23;19998;-80
2022/03/04 10:48:02;;;;;;;;;;;;;;;5.00;51.39;100100.84;6245639;23;19943;-80
2022/03/04 10:50:32;;;;;;;;;;;;;;;4.85;51.78;100107.56;6244914;23;19911;-80
2022/03/04 10:53:05;;;;;;;;;;;;;;;4.66;52.20;100098.56;6245773;23;19946;-80
2022/03/04 10:55:31;;;;;;;;;;;;;;;4.78;52.28;100097.38;6245590;23;19946;-80
2022/03/04 10:57:58;;;;;;;;;;;;;;;5.03;51.77;100105.53;6245855;23;20266;-80
2022/03/04 11:00:27;;;;;;;;;;;;;;;5.23;50.97;100098.41;6244616;23;20322;-80
2022/03/04 11:02:55;;;;;;;;;;;;;;;5.30;51.02;100087.34;6245335;23;19994;-80
2022/03/04 11:05:22;;;;;;;;;;;;;;;5.29;50.08;100099.56;6244919;23;20242;-80
2022/03/04 11:07:47;;;;;;;;;;;;;;;5.14;50.45;100092.53;6245678;23;20254;-80
2022/03/04 11:10:13;;;;;;;;;;;;;;;5.33;50.27;100102.28;6244884;23;19963;-80
2022/03/04 11:12:42;;;;;;;;;;;;;;;5.29;50.29;100093.28;6218706;23;19943;-80
2022/03/04 11:15:09;;;;;;;;;;;;;;;5.44;50.21;100090.06;6244792;23;19916;-80
2022/03/04 11:17:34;;;;;;;;;;;;;;;5.30;50.29;100092.84;6218766;23;19919;-80
2022/03/04 11:19:59;;;;;;;;;;;;;;;5.72;50.52;100088.31;6245235;23;19916;-80
2022/03/04 11:22:25;;;;;;;;;;;;;;;5.69;48.05;100072.63;6193278;23;20223;-81
2022/03/04 11:24:51;;;;;;;;;;;;;;;5.42;49.19;100086.16;6245139;23;19919;-80
2022/03/04 11:27:16;;;;;;;;;;;;;;;5.35;49.13;100081.44;6218403;23;19919;-80
2022/03/04 11:29:41;;;;;;;;;;;;;;;5.69;49.39;100078.13;6244734;23;20246;-80
2022/03/04 11:32:07;;;;;;;;;;;;;;;5.97;49.35;100078.75;6245107;23;19916;-80
2022/03/04 11:34:33;;;;;;;;;;;;;;;6.25;48.42;100074.97;6245115;23;19923;-80
2022/03/04 11:37:03;;;;;;;;;;;;;;;6.30;47.63;100073.75;6245095;23;19927;-80
2022/03/04 11:39:28;;;;;;;;;;;;;;;6.36;47.24;100050.84;6244452;23;19947;-80
2022/03/04 11:41:54;;;;;;;;;;;;;;;6.50;47.41;100072.78;6244933;23;19962;-80
2022/03/04 11:44:22;;;;;;;;;;;;;;;6.57;46.71;100069.94;6244595;23;19958;-80
2022/03/04 11:46:49;;;;;;;;;;;;;;;6.49;47.11;100068.44;6244827;23;19922;-80
2022/03/04 11:49:23;;;;;;;;;;;;;;;6.70;46.33;100063.91;6243536;23;19915;-80
2022/03/04 11:52:07;;;;;;;;;;;;;;;6.64;47.04;100071.06;6245159;23;19919;-80
2022/03/04 11:54:34;;;;;;;;;;;;;;;6.69;46.39;100065.09;6244682;23;20284;-80
2022/03/04 11:56:59;;;;;;;;;;;;;;;6.67;45.89;100057.25;6217962;23;19987;-80
2022/03/04 11:59:25;;;;;;;;;;;;;;;6.51;46.43;100066.06;6218278;23;19916;-80
2022/03/04 12:01:51;;;;;;;;;;;;;;;6.61;45.56;100066.38;6244105;23;19919;-80
2022/03/04 12:04:17;;;;;;;;;;;;;;;6.76;46.03;100074.06;6215381;23;19919;-80
2022/03/04 12:06:42;;;;;;;;;;;;;;;6.74;45.11;100068.19;6243021;23;19986;-80
2022/03/04 12:09:26;;;;;;;;;;;;;;;6.83;45.62;100067.72;6243851;23;19916;-80
2022/03/04 12:12:15;;;;;;;;;;;;;;;6.55;45.35;100064.03;6243254;23;19923;-80
2022/03/04 12:14:42;;;;;;;;;;;;;;;6.50;45.78;100061.75;6244127;23;19916;-80
2022/03/04 12:17:07;;;;;;;;;;;;;;;6.51;45.77;100062.53;6242939;23;19947;-80
2022/03/04 12:19:35;;;;;;;;;;;;;;;6.80;45.21;100063.00;6216330;23;20334;-80
2022/03/04 12:22:01;;;;;;;;;;;;;;;7.04;45.17;100053.66;6244212;23;20326;-80
2022/03/04 12:24:30;;;;;;;;;;;;;;;6.99;45.41;100056.91;6216278;23;19969;-80
2022/03/04 12:26:56;;;;;;;;;;;;;;;7.12;44.75;100057.13;6243583;23;19915;-80
2022/03/04 12:29:24;;;;;;;;;;;;;;;7.33;44.72;100045.81;6242117;23;19925;-80
2022/03/04 12:31:50;;;;;;;;;;;;;;;7.54;44.14;100033.69;6243140;23;19916;-80
2022/03/04 12:34:20;;;;;;;;;;;;;;;7.69;43.76;100057.13;6243016;23;19978;-80
2022/03/04 12:36:45;;;;;;;;;;;;;;;7.61;43.58;100052.91;6217330;23;19966;-80
2022/03/04 12:39:11;;;;;;;;;;;;;;;7.56;43.75;100050.63;6242998;23;19915;-80
2022/03/04 12:41:37;;;;;;;;;;;;;;;7.74;43.81;100038.13;6244058;23;19922;-80
2022/03/04 12:44:06;;;;;;;;;;;;;;;7.65;43.49;100034.31;6216839;23;19912;-80